Air Quality Table

TIMESTAMP NO2 O3 PM2.5 TEMP HUM AIRPRES WS WD NO
2022-08-15 20:00 7.15 µg/m3 72.39 µg/m3 5.77 µg/m3 28.46 °C N/A 998.28 mbar 1.82 m/s 177.63 Deg 1 µg/m3
2022-08-15 19:00 6.23 µg/m3 77.15 µg/m3 5.96 µg/m3 28.79 °C N/A 997.67 mbar 2.22 m/s 187.62 Deg 0.85 µg/m3
2022-08-15 18:00 4.74 µg/m3 82.68 µg/m3 6.3 µg/m3 29.53 °C N/A 997.63 mbar 2.46 m/s 192.13 Deg 0.83 µg/m3
2022-08-15 17:00 3.86 µg/m3 88.32 µg/m3 7.17 µg/m3 30.34 °C N/A 998.02 mbar 2.61 m/s 195.9 Deg 0.88 µg/m3
2022-08-15 16:00 3.44 µg/m3 87.87 µg/m3 8.82 µg/m3 30.77 °C N/A 998.24 mbar 2.26 m/s 205.78 Deg 0.87 µg/m3
2022-08-15 15:00 3.29 µg/m3 91.92 µg/m3 8.27 µg/m3 30.93 °C N/A 998.33 mbar 2.78 m/s 196.05 Deg 0.87 µg/m3
2022-08-15 14:00 3.12 µg/m3 99.81 µg/m3 6.6 µg/m3 30.96 °C N/A 998.53 mbar 2.82 m/s 204.85 Deg 0.68 µg/m3
2022-08-15 13:00 3.8 µg/m3 95.5 µg/m3 7.74 µg/m3 31.56 °C N/A 998.50 mbar 2.49 m/s 203.53 Deg 0.85 µg/m3
2022-08-15 12:00 4.5 µg/m3 95.92 µg/m3 9.16 µg/m3 31.8 °C N/A 998.64 mbar 1.85 m/s 193.35 Deg 0.83 µg/m3
2022-08-15 11:00 4.62 µg/m3 92.69 µg/m3 9.91 µg/m3 30.78 °C N/A 998.85 mbar 1.89 m/s 198.38 Deg 1.01 µg/m3
2022-08-15 10:00 4.47 µg/m3 94.27 µg/m3 7.64 µg/m3 30.28 °C N/A 998.82 mbar 1.62 m/s 176.65 Deg 1 µg/m3
2022-08-15 09:00 6.33 µg/m3 90.89 µg/m3 8.04 µg/m3 29.28 °C N/A 998.64 mbar 1.69 m/s 178.08 Deg 1.09 µg/m3
2022-08-15 08:00 10.84 µg/m3 79.98 µg/m3 8.25 µg/m3 28.19 °C N/A 998.40 mbar 2.13 m/s 162.25 Deg 1.54 µg/m3
2022-08-15 07:00 20.39 µg/m3 64.16 µg/m3 6.47 µg/m3 26.89 °C N/A 998.36 mbar 0.94 m/s 181.59 Deg 1.43 µg/m3
2022-08-15 06:00 13.57 µg/m3 74.31 µg/m3 9.59 µg/m3 26.29 °C N/A 997.73 mbar 1.42 m/s 159.17 Deg 0.79 µg/m3
2022-08-15 05:00 8.79 µg/m3 75.93 µg/m3 9.93 µg/m3 25.84 °C N/A 997.62 mbar 1.01 m/s 191.68 Deg 0.45 µg/m3
2022-08-15 04:00 11.9 µg/m3 62.77 µg/m3 9.5 µg/m3 25.95 °C N/A 997.70 mbar 0.79 m/s 25.59 Deg 0.38 µg/m3
2022-08-15 03:00 14.9 µg/m3 64.13 µg/m3 7.04 µg/m3 25.96 °C N/A 997.62 mbar 0.64 m/s 84.68 Deg 2.23 µg/m3
2022-08-15 02:00 9.38 µg/m3 68.47 µg/m3 15.34 µg/m3 26.28 °C N/A 997.82 mbar 0.47 m/s 237.83 Deg 0.61 µg/m3
2022-08-15 01:00 9.82 µg/m3 72.72 µg/m3 33.85 µg/m3 26.6 °C N/A 997.88 mbar 0.5 m/s 240.05 Deg 0.23 µg/m3
2022-08-15 00:00 10.95 µg/m3 77.15 µg/m3 19.08 µg/m3 27 °C N/A 998.07 mbar 0.47 m/s 338.36 Deg 0.21 µg/m3
2022-08-14 23:00 8.38 µg/m3 89.37 µg/m3 14.22 µg/m3 27.38 °C N/A 997.85 mbar 0.59 m/s 79.59 Deg 0.19 µg/m3
2022-08-14 22:00 9.26 µg/m3 86.08 µg/m3 7.81 µg/m3 27.5 °C N/A 997.85 mbar 0.79 m/s 181.43 Deg 0.45 µg/m3
2022-08-14 21:00 7.53 µg/m3 89.58 µg/m3 5.09 µg/m3 27.91 °C N/A 997.48 mbar 0.78 m/s 313.83 Deg 0.35 µg/m3
2022-08-14 20:00 5.5 µg/m3 94.96 µg/m3 4.39 µg/m3 28.27 °C N/A 996.82 mbar 1.25 m/s 311.93 Deg 0.32 µg/m3
2022-08-14 19:00 6.78 µg/m3 99.41 µg/m3 6.94 µg/m3 29.51 °C N/A 996.23 mbar 1.2 m/s 316.48 Deg 0.42 µg/m3
2022-08-14 18:00 5.64 µg/m3 99.98 µg/m3 7.34 µg/m3 31.23 °C N/A 995.87 mbar 1.22 m/s 315.12 Deg 0.72 µg/m3
2022-08-14 17:00 3.85 µg/m3 102.61 µg/m3 5.7 µg/m3 32.27 °C N/A 995.88 mbar 1.06 m/s 324.5 Deg 0.48 µg/m3
2022-08-14 16:00 3.23 µg/m3 98.03 µg/m3 6.04 µg/m3 32.69 °C N/A 996.18 mbar 1.06 m/s 245.08 Deg 0.53 µg/m3
2022-08-14 15:00 3.1 µg/m3 94.73 µg/m3 5.81 µg/m3 32.33 °C N/A 996.52 mbar 1.66 m/s 245.97 Deg 0.54 µg/m3
2022-08-14 14:00 2.72 µg/m3 89.89 µg/m3 4.69 µg/m3 32.35 °C N/A 996.96 mbar 1.27 m/s 322.57 Deg 0.61 µg/m3
2022-08-14 13:00 2.99 µg/m3 90.13 µg/m3 4.94 µg/m3 32.15 °C N/A 997.26 mbar 1.42 m/s 332.72 Deg 0.59 µg/m3
2022-08-14 12:00 2.65 µg/m3 89.32 µg/m3 3.41 µg/m3 31.68 °C N/A 997.67 mbar 1.48 m/s 322.1 Deg 0.56 µg/m3
2022-08-14 11:00 3.23 µg/m3 89.72 µg/m3 5 µg/m3 31.6 °C N/A 997.89 mbar 1.33 m/s 252.44 Deg 0.62 µg/m3
2022-08-14 10:00 2.67 µg/m3 89.05 µg/m3 7.38 µg/m3 31.27 °C N/A 997.95 mbar 1.53 m/s 327.82 Deg 0.63 µg/m3
2022-08-14 09:00 3.07 µg/m3 89.2 µg/m3 6.66 µg/m3 30.29 °C N/A 997.83 mbar 1.77 m/s 302.32 Deg 0.68 µg/m3
2022-08-14 08:00 3.83 µg/m3 87.29 µg/m3 4.2 µg/m3 29.33 °C N/A 997.42 mbar 1.55 m/s 301.69 Deg 0.72 µg/m3
2022-08-14 07:00 5.58 µg/m3 82.97 µg/m3 3.33 µg/m3 27.26 °C N/A 997.51 mbar 1.94 m/s 289.84 Deg 0.74 µg/m3
2022-08-14 06:00 3.2 µg/m3 79.28 µg/m3 2.5 µg/m3 26.4 °C N/A 997.83 mbar 1.19 m/s 296.82 Deg 0.58 µg/m3
2022-08-14 05:00 4.39 µg/m3 79.08 µg/m3 2.31 µg/m3 26.28 °C N/A 998.13 mbar 1.06 m/s 302.88 Deg 0.34 µg/m3
2022-08-14 04:00 3.51 µg/m3 79.51 µg/m3 3.03 µg/m3 26.38 °C N/A 998.42 mbar 1.34 m/s 292.38 Deg 0.41 µg/m3
2022-08-14 03:00 6.77 µg/m3 84.42 µg/m3 2.88 µg/m3 26.63 °C N/A 998.76 mbar 1.44 m/s 300.08 Deg 1.15 µg/m3
2022-08-14 02:00 1.91 µg/m3 84.81 µg/m3 2.75 µg/m3 26.73 °C N/A 999.17 mbar 1.37 m/s 307.02 Deg 0.51 µg/m3
2022-08-14 01:00 3.94 µg/m3 83.07 µg/m3 2.44 µg/m3 26.83 °C N/A 999.60 mbar 1.75 m/s 301.28 Deg 0.39 µg/m3
2022-08-14 00:00 3.27 µg/m3 84.74 µg/m3 3.79 µg/m3 26.84 °C N/A 999.95 mbar 1.44 m/s 312.16 Deg 0.36 µg/m3
2022-08-13 23:00 3.08 µg/m3 86.9 µg/m3 5.24 µg/m3 27.03 °C N/A 999.88 mbar 1.35 m/s 306.33 Deg 0.23 µg/m3
2022-08-13 22:00 2.95 µg/m3 90.5 µg/m3 4.73 µg/m3 27.22 °C N/A 999.87 mbar 1.95 m/s 298.15 Deg 0.39 µg/m3
2022-08-13 21:00 3.24 µg/m3 94.01 µg/m3 4.2 µg/m3 27.34 °C N/A 999.68 mbar 1.94 m/s 293.65 Deg 0.37 µg/m3
2022-08-13 20:00 4.52 µg/m3 92.31 µg/m3 4.94 µg/m3 27.57 °C N/A 999.62 mbar 1.88 m/s 288.53 Deg 0.4 µg/m3
2022-08-13 19:00 3.76 µg/m3 94.57 µg/m3 6.68 µg/m3 27.97 °C N/A 999.26 mbar 1.99 m/s 295.45 Deg 0.28 µg/m3
2022-08-13 18:00 3.12 µg/m3 96.52 µg/m3 4.49 µg/m3 29.06 °C N/A 999.20 mbar 2.19 m/s 287 Deg 0.43 µg/m3
2022-08-13 17:00 3.09 µg/m3 102.04 µg/m3 4.3 µg/m3 30.02 °C N/A 999.46 mbar 2.01 m/s 300.23 Deg 0.42 µg/m3
2022-08-13 16:00 2.55 µg/m3 100.29 µg/m3 6.51 µg/m3 30.05 °C N/A 999.99 mbar 1.85 m/s 314.35 Deg 0.54 µg/m3
2022-08-13 15:00 2.9 µg/m3 96.57 µg/m3 6.98 µg/m3 30 °C N/A 1,000.60 mbar 1.85 m/s 319.35 Deg 0.58 µg/m3
2022-08-13 14:00 3.23 µg/m3 96.77 µg/m3 4.24 µg/m3 30.34 °C N/A 1,000.79 mbar 1.73 m/s 320.2 Deg 0.53 µg/m3
2022-08-13 13:00 4.19 µg/m3 103.74 µg/m3 4.88 µg/m3 30.17 °C N/A 1,001.01 mbar 2.09 m/s 314.1 Deg 0.77 µg/m3
2022-08-13 12:00 4.53 µg/m3 105.35 µg/m3 4.69 µg/m3 30.06 °C N/A 1,001.35 mbar 1.89 m/s 317.28 Deg 0.63 µg/m3
2022-08-13 11:00 6.79 µg/m3 102.81 µg/m3 5.79 µg/m3 29.67 °C N/A 1,001.47 mbar 1.48 m/s 337.07 Deg 0.86 µg/m3
2022-08-13 10:00 7.39 µg/m3 101.11 µg/m3 5.98 µg/m3 29.17 °C N/A 1,001.27 mbar 1.5 m/s 326.82 Deg 1.07 µg/m3
2022-08-13 09:00 6.6 µg/m3 96.41 µg/m3 7.81 µg/m3 28.44 °C N/A 1,001.02 mbar 1.29 m/s 338.81 Deg 0.81 µg/m3
2022-08-13 08:00 13.13 µg/m3 87.38 µg/m3 12.45 µg/m3 27.44 °C N/A 1,000.86 mbar 0.98 m/s 322.39 Deg 0.82 µg/m3
2022-08-13 07:00 46.04 µg/m3 33.46 µg/m3 11.5 µg/m3 25.2 °C N/A 1,000.55 mbar 0.69 m/s 273.15 Deg 10.06 µg/m3
2022-08-13 06:00 28.19 µg/m3 41.22 µg/m3 9.33 µg/m3 23.86 °C N/A 1,000.47 mbar 0.31 m/s 299.41 Deg 0.56 µg/m3
2022-08-13 05:00 13.49 µg/m3 60.64 µg/m3 7.15 µg/m3 23.93 °C N/A 1,000.31 mbar 0.43 m/s 336.25 Deg 0.13 µg/m3
2022-08-13 04:00 15.66 µg/m3 69.04 µg/m3 6.07 µg/m3 24.28 °C N/A 1,000.41 mbar 0.73 m/s 339.43 Deg 0.2 µg/m3
2022-08-13 03:00 13.94 µg/m3 76.95 µg/m3 5.32 µg/m3 24.87 °C N/A 1,000.15 mbar 0.61 m/s 184.06 Deg 1.79 µg/m3
2022-08-13 02:00 7.83 µg/m3 89.08 µg/m3 3.67 µg/m3 25.56 °C N/A 1,000.26 mbar 1.02 m/s 25 Deg 0.55 µg/m3
2022-08-13 01:00 11.11 µg/m3 86.33 µg/m3 3.37 µg/m3 26.32 °C N/A 1,000.60 mbar 1.22 m/s 16.68 Deg 0.27 µg/m3
2022-08-13 00:00 12.75 µg/m3 81.42 µg/m3 4.64 µg/m3 25.88 °C N/A 1,000.58 mbar 0.98 m/s 259.21 Deg 0.25 µg/m3
2022-08-12 23:00 16.13 µg/m3 82.91 µg/m3 3.84 µg/m3 26.27 °C N/A 1,000.51 mbar 0.71 m/s 320.1 Deg 3.15 µg/m3
2022-08-12 22:00 5.54 µg/m3 98.08 µg/m3 5.53 µg/m3 26.14 °C N/A 1,000.40 mbar 1.06 m/s 327.6 Deg 0.28 µg/m3
2022-08-12 21:00 5.67 µg/m3 94.79 µg/m3 5.92 µg/m3 26.35 °C N/A 1,000.12 mbar 0.98 m/s 326.93 Deg 0.32 µg/m3
2022-08-12 20:00 6.95 µg/m3 99.13 µg/m3 5.05 µg/m3 26.56 °C N/A 999.79 mbar 0.87 m/s 328.23 Deg 0.23 µg/m3
2022-08-12 19:00 6.48 µg/m3 104.46 µg/m3 5.87 µg/m3 27.21 °C N/A 999.71 mbar 1.31 m/s 350.56 Deg 0.43 µg/m3
2022-08-12 18:00 4.45 µg/m3 106.63 µg/m3 7.06 µg/m3 28.51 °C N/A 999.57 mbar 1.31 m/s 326.96 Deg 0.54 µg/m3
2022-08-12 17:00 4.49 µg/m3 104.21 µg/m3 7.27 µg/m3 29.1 °C N/A 999.44 mbar 1.95 m/s 320.45 Deg 0.45 µg/m3
2022-08-12 16:00 5.3 µg/m3 103.22 µg/m3 8.15 µg/m3 29.37 °C N/A 999.50 mbar 1.59 m/s 333.33 Deg 0.62 µg/m3
2022-08-12 15:00 6.06 µg/m3 108.2 µg/m3 9.65 µg/m3 28.95 °C N/A 999.93 mbar 1.61 m/s 94.87 Deg 0.65 µg/m3
2022-08-12 14:00 6.71 µg/m3 107.73 µg/m3 8.85 µg/m3 29.08 °C N/A 999.93 mbar 1.76 m/s 22.33 Deg 0.79 µg/m3
2022-08-12 13:00 6.39 µg/m3 97.45 µg/m3 9.08 µg/m3 28.95 °C N/A 999.84 mbar 1.67 m/s 17.62 Deg 0.81 µg/m3
2022-08-12 12:00 7.52 µg/m3 90.55 µg/m3 7.95 µg/m3 28.19 °C N/A 1,000.09 mbar 1.26 m/s 104.35 Deg 0.92 µg/m3
2022-08-12 11:00 8.59 µg/m3 81.29 µg/m3 8.34 µg/m3 27.19 °C N/A 1,000.67 mbar 1.21 m/s 15.78 Deg 0.76 µg/m3
2022-08-12 10:00 13.47 µg/m3 73.59 µg/m3 7.21 µg/m3 27 °C N/A 1,000.74 mbar 0.74 m/s 334.35 Deg 0.78 µg/m3
2022-08-12 09:00 22.25 µg/m3 66.19 µg/m3 9.67 µg/m3 26.49 °C N/A 1,000.56 mbar 1.05 m/s 67.9 Deg 2.69 µg/m3
2022-08-12 08:00 24.36 µg/m3 61.82 µg/m3 15.74 µg/m3 23.66 °C N/A 1,000.57 mbar 1.07 m/s 193.12 Deg 2.25 µg/m3
2022-08-12 07:00 40.88 µg/m3 20.81 µg/m3 14.7 µg/m3 24.59 °C N/A 1,000.08 mbar 0.84 m/s 250.97 Deg 27.37 µg/m3
2022-08-12 06:00 35.83 µg/m3 2.65 µg/m3 11.44 µg/m3 23.65 °C N/A 999.65 mbar 0.3 m/s 290.13 Deg 24.64 µg/m3
2022-08-12 05:00 22.95 µg/m3 7.39 µg/m3 10.08 µg/m3 23.63 °C N/A 999.59 mbar 0.31 m/s 296.21 Deg 2.64 µg/m3
2022-08-12 04:00 12.13 µg/m3 22.78 µg/m3 9.31 µg/m3 23.77 °C N/A 999.86 mbar 0.33 m/s 294.54 Deg 0.03 µg/m3
2022-08-12 03:00 17.75 µg/m3 13.67 µg/m3 7.66 µg/m3 23.92 °C N/A 1,000.03 mbar 0.38 m/s 303.52 Deg 0.65 µg/m3
2022-08-12 02:00 12.94 µg/m3 14.83 µg/m3 5.77 µg/m3 24.08 °C N/A 1,000.32 mbar 0.34 m/s 291.57 Deg -0.18 µg/m3
2022-08-12 01:00 9.6 µg/m3 20.98 µg/m3 4.92 µg/m3 24.19 °C N/A 1,000.59 mbar 0.44 m/s 293.61 Deg -0.59 µg/m3
2022-08-12 00:00 6.98 µg/m3 30.92 µg/m3 10.84 µg/m3 24.13 °C N/A 1,000.91 mbar 0.43 m/s 282.13 Deg -0.32 µg/m3
2022-08-11 23:00 16.86 µg/m3 37.71 µg/m3 12.79 µg/m3 24.22 °C N/A 1,001.15 mbar 0.99 m/s 172.65 Deg -0.89 µg/m3
2022-08-11 22:00 28 µg/m3 9.71 µg/m3 10.16 µg/m3 24.62 °C N/A 1,000.99 mbar 0.45 m/s 205.19 Deg -0.25 µg/m3
2022-08-11 21:00 31.64 µg/m3 9.1 µg/m3 8.21 µg/m3 24.54 °C N/A 1,000.79 mbar 0.4 m/s 272.05 Deg 2.03 µg/m3
2022-08-11 20:00 24.21 µg/m3 26.86 µg/m3 5.24 µg/m3 24.55 °C N/A 1,000.47 mbar 0.52 m/s 306.9 Deg 0.39 µg/m3
2022-08-11 19:00 15.81 µg/m3 56.49 µg/m3 3.35 µg/m3 24.12 °C N/A 1,000.20 mbar 0.95 m/s 257.57 Deg 0.79 µg/m3
2022-08-11 18:00 11.56 µg/m3 63.68 µg/m3 6.7 µg/m3 24.52 °C N/A 1,000.10 mbar 1.3 m/s 289.35 Deg 0.75 µg/m3
2022-08-11 17:00 10.18 µg/m3 68.03 µg/m3 6.4 µg/m3 25.66 °C N/A 1,000.19 mbar 1.69 m/s 245.38 Deg 0.79 µg/m3
2022-08-11 16:00 13.09 µg/m3 65.41 µg/m3 6.98 µg/m3 27.76 °C N/A 1,000.06 mbar 2.03 m/s 135.82 Deg 1.18 µg/m3
2022-08-11 15:00 10.57 µg/m3 69.39 µg/m3 4.09 µg/m3 28.26 °C N/A 1,000.34 mbar 2.23 m/s 148.8 Deg 1.92 µg/m3
2022-08-11 14:00 8.77 µg/m3 73.27 µg/m3 6.32 µg/m3 25.71 °C N/A 1,001.10 mbar 1.67 m/s 176.77 Deg 1.89 µg/m3
2022-08-11 13:00 13.13 µg/m3 69.09 µg/m3 8.31 µg/m3 23.25 °C N/A 1,001.63 mbar 1.97 m/s 188.83 Deg 1.87 µg/m3
2022-08-11 12:00 12.31 µg/m3 76.23 µg/m3 7.27 µg/m3 24.87 °C N/A 1,001.76 mbar 2.42 m/s 161.32 Deg 0.92 µg/m3
2022-08-11 11:00 13.47 µg/m3 81.12 µg/m3 8.87 µg/m3 28.75 °C N/A 1,001.28 mbar 2.74 m/s 223.48 Deg 1.79 µg/m3
2022-08-11 10:00 18.94 µg/m3 70.77 µg/m3 8.02 µg/m3 28.5 °C N/A 1,001.46 mbar 2.06 m/s 176.32 Deg 3.77 µg/m3
2022-08-11 09:00 14.69 µg/m3 67.38 µg/m3 12.54 µg/m3 27.83 °C N/A 1,001.26 mbar 2.59 m/s 161.23 Deg 2.18 µg/m3
2022-08-11 08:00 42.2 µg/m3 39.7 µg/m3 15.3 µg/m3 27.5 °C N/A 1,000.99 mbar 1.24 m/s 211.23 Deg 15.87 µg/m3
2022-08-11 07:00 54.92 µg/m3 15.95 µg/m3 12.92 µg/m3 25.54 °C N/A 1,000.73 mbar 0.36 m/s 198.05 Deg 21.1 µg/m3
2022-08-11 06:00 54.16 µg/m3 3.83 µg/m3 7.87 µg/m3 25.13 °C N/A 1,000.54 mbar 0.35 m/s 276.15 Deg 22.31 µg/m3
2022-08-11 05:00 23.6 µg/m3 42.35 µg/m3 6.55 µg/m3 25.44 °C N/A 1,000.27 mbar 0.56 m/s 90.22 Deg 0.02 µg/m3
2022-08-11 04:00 13.12 µg/m3 47.83 µg/m3 6.13 µg/m3 25.52 °C N/A 1,000.21 mbar 0.64 m/s 300.32 Deg 0.13 µg/m3
2022-08-11 03:00 14.24 µg/m3 50.56 µg/m3 6.74 µg/m3 25.73 °C N/A 1,000.49 mbar 0.46 m/s 202.25 Deg 1.29 µg/m3
2022-08-11 02:00 7.92 µg/m3 54.68 µg/m3 7.32 µg/m3 26.02 °C N/A 1,000.76 mbar 0.62 m/s 271.17 Deg 0.45 µg/m3
2022-08-11 01:00 10.49 µg/m3 54.63 µg/m3 9.02 µg/m3 26.19 °C N/A 1,001.09 mbar 0.6 m/s 275.51 Deg 0.25 µg/m3
2022-08-11 00:00 16.44 µg/m3 49.21 µg/m3 10.76 µg/m3 26.41 °C N/A 1,001.39 mbar 0.51 m/s 248.67 Deg 0.23 µg/m3
2022-08-10 23:00 29.07 µg/m3 39.62 µg/m3 11.48 µg/m3 26.78 °C N/A 1,001.48 mbar 0.71 m/s 250.72 Deg 0.62 µg/m3
2022-08-10 22:00 22.53 µg/m3 47.47 µg/m3 9.04 µg/m3 27.23 °C N/A 1,001.38 mbar 0.51 m/s 274.36 Deg 0.34 µg/m3
2022-08-10 21:00 10.3 µg/m3 70.09 µg/m3 7.3 µg/m3 27.67 °C N/A 1,001.22 mbar 0.49 m/s 289.17 Deg 0.35 µg/m3
2022-08-10 20:00 6.39 µg/m3 77.4 µg/m3 5.73 µg/m3 28.07 °C N/A 1,001.04 mbar 0.56 m/s 332.42 Deg 0.25 µg/m3
2022-08-10 19:00 5.23 µg/m3 83.53 µg/m3 5.87 µg/m3 29.08 °C N/A 1,000.88 mbar 1.2 m/s 303.16 Deg 0.51 µg/m3
2022-08-10 18:00 5.21 µg/m3 82.14 µg/m3 8.61 µg/m3 30.27 °C N/A 1,000.58 mbar 1.08 m/s 275.66 Deg 0.76 µg/m3
2022-08-10 17:00 5.2 µg/m3 78.51 µg/m3 11.12 µg/m3 30.29 °C N/A 1,000.66 mbar 1.64 m/s 247.51 Deg 1.06 µg/m3
2022-08-10 16:00 7.99 µg/m3 76.78 µg/m3 11.1 µg/m3 30.33 °C N/A 1,000.66 mbar 2.54 m/s 228.18 Deg 2.08 µg/m3
2022-08-10 15:00 6.78 µg/m3 80.54 µg/m3 7.59 µg/m3 30.58 °C N/A 1,000.78 mbar 2.25 m/s 218.67 Deg 1.59 µg/m3
2022-08-10 14:00 10.64 µg/m3 84.72 µg/m3 9.8 µg/m3 28.22 °C N/A 1,001.65 mbar 2.04 m/s 188.53 Deg 1.84 µg/m3
2022-08-10 13:00 11.26 µg/m3 82.36 µg/m3 10.78 µg/m3 29.5 °C N/A 1,001.73 mbar 1.76 m/s 249.05 Deg 1.79 µg/m3
2022-08-10 12:00 11.24 µg/m3 85.24 µg/m3 12.39 µg/m3 29.15 °C N/A 1,001.96 mbar 1.78 m/s 147.04 Deg 1.56 µg/m3
2022-08-10 11:00 10.44 µg/m3 84.6 µg/m3 13.32 µg/m3 30.28 °C N/A 1,001.90 mbar 2.28 m/s 210.78 Deg 2.17 µg/m3
2022-08-10 10:00 16.99 µg/m3 81.15 µg/m3 12.18 µg/m3 29.69 °C N/A 1,001.83 mbar 2.05 m/s 194.28 Deg 2.78 µg/m3
2022-08-10 09:00 13.64 µg/m3 83.67 µg/m3 11.31 µg/m3 29.57 °C N/A 1,001.73 mbar 1.3 m/s 198.77 Deg 2.12 µg/m3
2022-08-10 08:00 7.64 µg/m3 81.71 µg/m3 12.5 µg/m3 28.53 °C N/A 1,001.66 mbar 0.89 m/s 203.75 Deg 1.65 µg/m3
2022-08-10 07:00 28.7 µg/m3 50.16 µg/m3 14.98 µg/m3 26.55 °C N/A 1,001.60 mbar 0.63 m/s 260.57 Deg 3.3 µg/m3
2022-08-10 06:00 42.47 µg/m3 24.04 µg/m3 15.4 µg/m3 25.68 °C N/A 1,001.39 mbar 0.68 m/s 261.78 Deg 5.15 µg/m3
2022-08-10 05:00 23.85 µg/m3 40.1 µg/m3 16.02 µg/m3 25.68 °C N/A 1,001.03 mbar 0.47 m/s 277.45 Deg 0.29 µg/m3
2022-08-10 04:00 15.08 µg/m3 42.18 µg/m3 16 µg/m3 25.85 °C N/A 1,001.03 mbar 0.47 m/s 263.39 Deg 0.33 µg/m3
2022-08-10 03:00 17.82 µg/m3 43.09 µg/m3 11.97 µg/m3 25.92 °C N/A 1,001.18 mbar 0.51 m/s 275.22 Deg 1.09 µg/m3
2022-08-10 02:00 10.26 µg/m3 48.41 µg/m3 11.16 µg/m3 26.14 °C N/A 1,001.33 mbar 0.54 m/s 266.76 Deg 0.21 µg/m3
2022-08-10 01:00 17.6 µg/m3 46 µg/m3 9.67 µg/m3 26.52 °C N/A 1,001.59 mbar 0.52 m/s 275.8 Deg 0.08 µg/m3
2022-08-10 00:00 7.9 µg/m3 64.41 µg/m3 10.08 µg/m3 27.16 °C N/A 1,001.98 mbar 0.5 m/s 243.25 Deg 0.21 µg/m3
2022-08-09 23:00 6.54 µg/m3 73.95 µg/m3 11.16 µg/m3 27.2 °C N/A 1,002.01 mbar 0.58 m/s 178.16 Deg 0.24 µg/m3
2022-08-09 22:00 7.53 µg/m3 73.95 µg/m3 9.19 µg/m3 27.52 °C N/A 1,001.90 mbar 0.45 m/s 315.15 Deg 0.33 µg/m3
2022-08-09 21:00 5.46 µg/m3 76.95 µg/m3 7.3 µg/m3 27.86 °C N/A 1,001.82 mbar 0.86 m/s 305.74 Deg 0.3 µg/m3
2022-08-09 20:00 4.34 µg/m3 80.4 µg/m3 6.15 µg/m3 28.25 °C N/A 1,001.44 mbar 0.86 m/s 315.27 Deg 0.4 µg/m3
2022-08-09 19:00 3.39 µg/m3 83.65 µg/m3 7.49 µg/m3 29.03 °C N/A 1,001.15 mbar 1.19 m/s 332.47 Deg 0.34 µg/m3
2022-08-09 18:00 3.84 µg/m3 82.12 µg/m3 6.3 µg/m3 30.36 °C N/A 1,001.04 mbar 1.22 m/s 316.3 Deg 0.53 µg/m3
2022-08-09 17:00 4.87 µg/m3 84.61 µg/m3 4.77 µg/m3 31.39 °C N/A 1,000.64 mbar 1.58 m/s 282.46 Deg 0.78 µg/m3
2022-08-09 16:00 4.76 µg/m3 81.92 µg/m3 5.98 µg/m3 31.48 °C N/A 1,000.65 mbar 1.93 m/s 272.05 Deg 0.89 µg/m3
2022-08-09 15:00 7.37 µg/m3 79.77 µg/m3 10.76 µg/m3 31.94 °C N/A 1,000.90 mbar 1.95 m/s 285.38 Deg 2.24 µg/m3
2022-08-09 14:00 7.75 µg/m3 112.59 µg/m3 13.64 µg/m3 31.71 °C N/A 1,001.21 mbar 1.48 m/s 291.14 Deg 0.9 µg/m3
2022-08-09 13:00 10.15 µg/m3 127.45 µg/m3 14.96 µg/m3 30.55 °C N/A 1,001.80 mbar 1.19 m/s 165.54 Deg 0.97 µg/m3
2022-08-09 12:00 11.35 µg/m3 122.49 µg/m3 16.32 µg/m3 30.26 °C N/A 1,002.08 mbar 1.37 m/s 230.09 Deg 0.86 µg/m3
2022-08-09 11:00 16.99 µg/m3 108.78 µg/m3 20.37 µg/m3 30.01 °C N/A 1,002.13 mbar 1.44 m/s 96.06 Deg 0.82 µg/m3
2022-08-09 10:00 34.84 µg/m3 88.05 µg/m3 20.77 µg/m3 31.1 °C N/A 1,001.82 mbar 1.42 m/s 230.9 Deg 4.85 µg/m3
2022-08-09 09:00 29.87 µg/m3 89.33 µg/m3 20.94 µg/m3 30.84 °C N/A 1,001.66 mbar 1.07 m/s 244.72 Deg 3.59 µg/m3
2022-08-09 08:00 33.36 µg/m3 79.72 µg/m3 26.44 µg/m3 29.17 °C N/A 1,001.60 mbar 0.77 m/s 213.04 Deg 3.3 µg/m3
2022-08-09 07:00 59.42 µg/m3 36.58 µg/m3 20.52 µg/m3 27.43 °C N/A 1,001.41 mbar 0.48 m/s 214.02 Deg 12.06 µg/m3
2022-08-09 06:00 43.25 µg/m3 29.49 µg/m3 16.74 µg/m3 25.67 °C N/A 1,001.03 mbar 0.42 m/s 301.94 Deg 5.05 µg/m3
2022-08-09 05:00 21.78 µg/m3 40.68 µg/m3 14.68 µg/m3 25.54 °C N/A 1,000.78 mbar 0.38 m/s 273.16 Deg 0.09 µg/m3
2022-08-09 04:00 16.77 µg/m3 51.15 µg/m3 13.18 µg/m3 25.91 °C N/A 1,000.72 mbar 0.43 m/s 278.99 Deg 0.38 µg/m3
2022-08-09 03:00 20.75 µg/m3 73.86 µg/m3 12.86 µg/m3 26.42 °C N/A 1,000.65 mbar 0.42 m/s 284.05 Deg 1.99 µg/m3
2022-08-09 02:00 9.18 µg/m3 75.74 µg/m3 11.97 µg/m3 26.58 °C N/A 1,000.74 mbar 0.49 m/s 278.18 Deg 0.84 µg/m3
2022-08-09 01:00 3.14 µg/m3 103.46 µg/m3 11.73 µg/m3 27.4 °C N/A 1,000.95 mbar 0.52 m/s 154.59 Deg 0.31 µg/m3
2022-08-09 00:00 3.2 µg/m3 107.23 µg/m3 12.64 µg/m3 27.8 °C N/A 1,001.44 mbar 0.82 m/s 35.76 Deg 0.25 µg/m3
2022-08-08 23:00 6.08 µg/m3 102.37 µg/m3 11.92 µg/m3 28.13 °C N/A 1,001.55 mbar 0.88 m/s 257.38 Deg 0.07 µg/m3
2022-08-08 22:00 9.48 µg/m3 97.79 µg/m3 12.79 µg/m3 28.35 °C N/A 1,001.36 mbar 0.53 m/s 229.94 Deg 0.38 µg/m3

It is to be noted that the data is provisional and subject to quality assurance procedures. For validated data kindly refer your request to contact.air@era.org.mt